East Franklin, Vermont
Current Conditions -  °F | °C
As of 10:35 AM on Saturday 20 Dec 2014 (Local Time) from KFSO Reporting Station
Clear Clear  
Wind Chill: -8°   Ceiling: Unl
Heat Index: -8°   Visibility: 10mi
Dew Point: -9°   Wind: 0mph
Humidity: 87%   Direction: NA
Pressure: 30.34"   Gusts: NA
Location:  44.9656°N, 72.8975°W
Report Text: KFSO 201535Z AUTO 00000KT 10SM CLR M08/M09 A3034 RMK AO2 T10761094
Loading
Personal Weather Stations






























Interactive Weather Map New forecast layout! Learn more

10-Day Weather Forecast

Advertisements
Track Severe Weather on mobile